createdAt,value
2023-04-15T00:00:56.325Z,12.87
2023-04-15T00:03:23.845Z,8.37
2023-04-15T00:05:50.953Z,8.00
2023-04-15T00:08:17.546Z,11.77
2023-04-15T00:10:46.984Z,5.93
2023-04-15T00:13:13.596Z,8.57
2023-04-15T00:15:40.223Z,7.80
2023-04-15T00:18:08.366Z,9.27
2023-04-15T00:20:36.146Z,8.83
2023-04-15T00:23:04.412Z,9.10
2023-04-15T00:25:31.563Z,10.77
2023-04-15T00:27:58.457Z,10.80
2023-04-15T00:30:26.188Z,11.87
2023-04-15T00:32:53.675Z,10.97
2023-04-15T00:35:20.831Z,9.97
2023-04-15T00:37:47.907Z,8.50
2023-04-15T00:40:19.166Z,6.70
2023-04-15T00:42:45.909Z,9.27
2023-04-15T00:45:13.110Z,9.33
2023-04-15T00:47:42.417Z,7.53
2023-04-15T00:50:09.999Z,7.90
2023-04-15T00:52:37.327Z,8.30
2023-04-15T00:55:05.179Z,7.50
2023-04-15T00:57:32.432Z,7.17
2023-04-15T00:59:59.133Z,8.70
2023-04-15T01:02:25.957Z,9.33
2023-04-15T01:04:53.081Z,7.33
2023-04-15T01:07:19.772Z,5.93
2023-04-15T01:09:46.856Z,8.40
2023-04-15T01:12:15.610Z,9.63
2023-04-15T01:14:42.671Z,8.63
2023-04-15T01:17:09.912Z,9.83
2023-04-15T01:19:37.308Z,9.47
2023-04-15T01:22:05.456Z,9.17
2023-04-15T01:24:33.329Z,8.73
2023-04-15T01:27:00.090Z,7.70
2023-04-15T01:29:27.590Z,11.23
2023-04-15T01:31:56.199Z,9.23
2023-04-15T01:34:23.479Z,10.73
2023-04-15T01:36:50.252Z,10.03
2023-04-15T01:39:16.956Z,9.97
2023-04-15T01:41:43.628Z,9.87
2023-04-15T01:44:10.241Z,9.87
2023-04-15T01:46:37.248Z,10.63
2023-04-15T01:49:04.283Z,12.87
2023-04-15T01:51:30.904Z,10.37
2023-04-15T01:53:57.677Z,8.83
2023-04-15T01:56:24.737Z,10.23
2023-04-15T01:58:51.925Z,12.60
2023-04-15T02:01:20.103Z,9.27
2023-04-15T02:03:48.217Z,8.90
2023-04-15T02:06:18.514Z,10.67
2023-04-15T02:08:47.397Z,9.63
2023-04-15T02:11:14.134Z,11.03
2023-04-15T02:13:40.877Z,11.47
2023-04-15T02:16:18.541Z,10.60
2023-04-15T02:18:47.058Z,9.27
2023-04-15T02:21:14.088Z,13.50
2023-04-15T02:23:40.702Z,8.90
2023-04-15T02:26:09.800Z,10.00
2023-04-15T02:28:37.137Z,8.40
2023-04-15T02:31:08.002Z,10.77
2023-04-15T02:33:34.613Z,9.17
2023-04-15T02:36:01.624Z,9.37
2023-04-15T02:38:28.309Z,11.90
2023-04-15T02:40:54.955Z,8.97
2023-04-15T02:43:21.572Z,11.70
2023-04-15T02:45:48.419Z,8.87
2023-04-15T02:48:18.140Z,11.40
2023-04-15T02:50:45.308Z,10.23
2023-04-15T02:53:12.091Z,8.00
2023-04-15T02:55:38.983Z,8.23
2023-04-15T02:58:05.890Z,9.17
2023-04-15T03:00:32.601Z,8.67
2023-04-15T03:03:03.666Z,12.73
2023-04-15T03:05:30.733Z,10.67
2023-04-15T03:07:57.400Z,10.87
2023-04-15T03:10:24.316Z,10.30
2023-04-15T03:12:51.008Z,11.60
2023-04-15T03:15:17.591Z,9.53
2023-04-15T03:17:44.350Z,13.73
2023-04-15T03:20:11.767Z,12.87
2023-04-15T03:22:38.401Z,11.67
2023-04-15T03:25:08.924Z,12.90
2023-04-15T03:27:35.911Z,9.60
2023-04-15T03:30:02.561Z,10.20
2023-04-15T03:32:29.144Z,10.80
2023-04-15T03:34:55.881Z,8.73
2023-04-15T03:37:23.351Z,12.33
2023-04-15T03:39:49.944Z,9.70
2023-04-15T03:42:17.060Z,10.47
2023-04-15T03:44:43.644Z,13.17
2023-04-15T03:47:10.234Z,8.80
2023-04-15T03:49:37.404Z,8.37
2023-04-15T03:52:04.044Z,11.03
2023-04-15T03:54:30.703Z,10.90
2023-04-15T03:56:57.832Z,12.13
2023-04-15T03:59:24.441Z,10.23
2023-04-15T04:01:51.193Z,10.50
2023-04-15T04:04:17.889Z,10.63
2023-04-15T04:06:45.126Z,13.43
2023-04-15T04:09:11.744Z,9.60
2023-04-15T04:11:38.337Z,10.80
2023-04-15T04:14:05.365Z,9.13
2023-04-15T04:16:32.025Z,9.90
2023-04-15T04:18:58.621Z,10.90
2023-04-15T04:21:27.181Z,12.53
2023-04-15T04:23:53.922Z,10.90
2023-04-15T04:26:20.791Z,14.40
2023-04-15T04:28:47.432Z,10.30
2023-04-15T04:31:14.121Z,11.73
2023-04-15T04:33:40.887Z,9.23
2023-04-15T04:36:07.814Z,11.80
2023-04-15T04:38:36.729Z,9.43
2023-04-15T04:41:03.402Z,9.60
2023-04-15T04:43:30.534Z,10.00
2023-04-15T04:45:57.232Z,10.10
2023-04-15T04:48:23.841Z,8.53
2023-04-15T04:50:50.823Z,12.73
2023-04-15T04:53:18.219Z,13.37
2023-04-15T04:55:44.801Z,12.30
2023-04-15T04:58:11.825Z,10.00
2023-04-15T05:00:38.624Z,11.03
2023-04-15T05:03:05.492Z,9.93
2023-04-15T05:05:32.267Z,10.37
2023-04-15T05:07:58.982Z,17.37
2023-04-15T05:10:25.767Z,10.03
2023-04-15T05:12:52.789Z,10.40
2023-04-15T05:15:19.591Z,10.80
2023-04-15T05:17:46.278Z,8.90
2023-04-15T05:20:13.898Z,14.00
2023-04-15T05:22:40.540Z,10.47
2023-04-15T05:25:07.569Z,10.50
2023-04-15T05:27:34.221Z,10.70
2023-04-15T05:30:03.494Z,10.70
2023-04-15T05:32:30.095Z,13.47
2023-04-15T05:34:56.815Z,10.47
2023-04-15T05:37:23.468Z,14.27
2023-04-15T05:39:50.036Z,11.17
2023-04-15T05:42:17.469Z,13.17
2023-04-15T05:44:44.225Z,15.13
2023-04-15T05:47:11.467Z,14.43
2023-04-15T05:49:38.126Z,10.33
2023-04-15T05:52:04.835Z,12.03
2023-04-15T05:54:32.297Z,13.83
2023-04-15T05:56:59.476Z,13.40
2023-04-15T05:59:26.169Z,13.87
2023-04-15T06:01:53.202Z,11.03
2023-04-15T06:04:19.919Z,10.53
2023-04-15T06:06:47.481Z,12.97
2023-04-15T06:09:14.236Z,10.73
2023-04-15T06:11:41.639Z,12.27
2023-04-15T06:14:08.546Z,13.20
2023-04-15T06:16:36.775Z,12.90
2023-04-15T06:19:03.891Z,11.00
2023-04-15T06:21:32.182Z,11.20
2023-04-15T06:24:01.646Z,13.07
2023-04-15T06:26:28.450Z,11.73
2023-04-15T06:28:55.117Z,12.27
2023-04-15T06:31:21.797Z,13.20
2023-04-15T06:33:48.722Z,12.90
2023-04-15T06:36:15.639Z,13.03
2023-04-15T06:38:42.456Z,13.20
2023-04-15T06:41:09.139Z,13.57
2023-04-15T06:43:35.812Z,12.30
2023-04-15T06:46:02.525Z,12.50
2023-04-15T06:48:29.537Z,13.87
2023-04-15T06:50:56.466Z,12.23
2023-04-15T06:53:23.131Z,14.37
2023-04-15T06:55:49.798Z,13.40
2023-04-15T06:58:16.426Z,12.50
2023-04-15T07:00:43.196Z,17.27
2023-04-15T07:03:11.434Z,14.70
2023-04-15T07:05:38.576Z,16.10
2023-04-15T07:08:05.815Z,14.53
2023-04-15T07:10:34.527Z,16.57
2023-04-15T07:13:01.896Z,15.57
2023-04-15T07:15:29.029Z,12.03
2023-04-15T07:17:56.412Z,11.63
2023-04-15T07:20:23.562Z,12.37
2023-04-15T07:22:52.246Z,8.80
2023-04-15T07:25:19.538Z,7.90
2023-04-15T07:27:46.543Z,11.03
2023-04-15T07:30:13.566Z,10.03
2023-04-15T07:32:40.671Z,8.37
2023-04-15T07:35:08.047Z,9.00
2023-04-15T07:37:37.268Z,8.57
2023-04-15T07:40:05.203Z,9.83
2023-04-15T07:42:32.315Z,10.33
2023-04-15T07:45:01.706Z,11.13
2023-04-15T07:47:28.676Z,12.93
2023-04-15T07:49:55.330Z,8.60
2023-04-15T07:52:22.627Z,8.60
2023-04-15T07:54:49.431Z,8.43
2023-04-15T07:57:17.190Z,8.43
2023-04-15T07:59:43.852Z,9.10
2023-04-15T08:02:12.010Z,7.83
2023-04-15T08:04:38.907Z,7.83
2023-04-15T08:07:06.499Z,7.43
2023-04-15T08:09:33.206Z,5.60
2023-04-15T08:11:59.885Z,6.33
2023-04-15T08:14:26.562Z,6.73
2023-04-15T08:16:53.137Z,6.57
2023-04-15T08:19:19.819Z,7.53
2023-04-15T08:21:46.947Z,5.13
2023-04-15T08:24:13.661Z,4.70
2023-04-15T08:26:40.287Z,5.03
2023-04-15T08:29:06.974Z,4.17
2023-04-15T08:31:33.727Z,5.77
2023-04-15T08:34:00.526Z,6.03
2023-04-15T08:36:27.298Z,3.50
2023-04-15T08:38:54.116Z,4.80
2023-04-15T08:41:25.890Z,3.73
2023-04-15T08:44:04.688Z,3.67
2023-04-15T08:46:32.456Z,4.57
2023-04-15T08:48:59.978Z,3.30
2023-04-15T08:51:29.399Z,4.77
2023-04-15T08:53:56.513Z,3.87
2023-04-15T08:56:28.277Z,4.50
2023-04-15T08:58:55.135Z,3.43
2023-04-15T09:01:25.109Z,5.00
2023-04-15T09:03:53.805Z,3.87
2023-04-15T09:06:21.949Z,4.13
2023-04-15T09:08:52.466Z,4.33
2023-04-15T09:11:20.387Z,3.40
2023-04-15T09:13:47.236Z,7.80
2023-04-15T09:16:14.691Z,5.40
2023-04-15T09:18:41.535Z,4.27
2023-04-15T09:21:13.682Z,7.57
2023-04-15T09:24:01.170Z,3.50
2023-04-15T09:26:40.342Z,3.87
2023-04-15T09:29:14.026Z,4.00
2023-04-15T09:31:41.843Z,3.40
2023-04-15T09:34:08.586Z,5.70
2023-04-15T09:36:49.232Z,3.83
2023-04-15T09:39:17.029Z,4.23
2023-04-15T09:41:44.665Z,4.20
2023-04-15T09:44:27.299Z,4.10
2023-04-15T09:46:53.935Z,5.17
2023-04-15T09:49:21.166Z,5.60
2023-04-15T09:52:01.308Z,7.67
2023-04-15T09:54:36.530Z,6.20
2023-04-15T09:57:07.796Z,5.83
2023-04-15T09:59:34.816Z,3.73
2023-04-15T10:02:04.217Z,3.63
2023-04-15T10:04:35.679Z,4.20
2023-04-15T10:07:05.240Z,5.03
2023-04-15T10:09:33.750Z,4.10
2023-04-15T10:12:01.293Z,4.27
2023-04-15T10:14:33.472Z,3.40
2023-04-15T10:17:03.738Z,4.43
2023-04-15T10:19:33.509Z,4.10
2023-04-15T10:22:00.331Z,3.83
2023-04-15T10:24:28.238Z,4.70
2023-04-15T10:26:55.646Z,4.77
2023-04-15T10:29:23.795Z,3.80
2023-04-15T10:31:51.495Z,4.33
2023-04-15T10:34:19.020Z,6.07
2023-04-15T10:36:47.221Z,7.60
2023-04-15T10:39:45.752Z,7.00
2023-04-15T10:42:17.739Z,5.83
2023-04-15T10:44:52.457Z,4.47
2023-04-15T10:47:21.845Z,4.10
2023-04-15T10:49:52.817Z,4.63
2023-04-15T10:52:25.973Z,7.27
2023-04-15T10:55:16.302Z,4.27
2023-04-15T10:57:44.011Z,3.53
2023-04-15T11:00:14.727Z,4.93
2023-04-15T11:02:56.669Z,4.20
2023-04-15T11:05:43.352Z,4.40
2023-04-15T11:08:12.955Z,3.67
2023-04-15T11:10:40.047Z,4.70
2023-04-15T11:13:17.377Z,4.50
2023-04-15T11:15:45.869Z,6.60
2023-04-15T11:18:16.730Z,5.47
2023-04-15T11:20:55.788Z,4.00
2023-04-15T11:23:33.465Z,3.50
2023-04-15T11:26:02.603Z,4.47
2023-04-15T11:28:31.082Z,5.00
2023-04-15T11:30:58.199Z,4.87
2023-04-15T11:33:26.068Z,4.97
2023-04-15T11:35:54.768Z,6.43
2023-04-15T11:38:22.430Z,4.03
2023-04-15T11:40:50.808Z,3.90
2023-04-15T11:43:20.889Z,5.37
2023-04-15T11:46:02.895Z,4.27
2023-04-15T11:48:34.065Z,3.27
2023-04-15T11:51:02.167Z,3.20
2023-04-15T11:53:48.507Z,4.77
2023-04-15T11:56:22.719Z,3.83
2023-04-15T11:58:53.449Z,3.10
2023-04-15T12:01:20.204Z,4.10
2023-04-15T12:03:48.435Z,2.90
2023-04-15T12:06:21.877Z,7.77
2023-04-15T12:09:12.388Z,2.77
2023-04-15T12:11:48.864Z,4.03
2023-04-15T12:14:22.663Z,5.80
2023-04-15T12:16:52.521Z,6.63
2023-04-15T12:19:40.535Z,8.23
2023-04-15T12:22:11.015Z,3.97
2023-04-15T12:24:38.594Z,4.30
2023-04-15T12:27:07.144Z,3.73
2023-04-15T12:29:35.294Z,3.70
2023-04-15T12:32:09.325Z,5.47
2023-04-15T12:34:39.229Z,3.83
2023-04-15T12:37:09.684Z,4.67
2023-04-15T12:39:37.942Z,4.60
2023-04-15T12:42:06.259Z,3.83
2023-04-15T12:44:33.490Z,4.63
2023-04-15T12:47:00.698Z,3.57
2023-04-15T12:49:28.864Z,3.27
2023-04-15T12:51:57.964Z,3.33
2023-04-15T12:54:24.580Z,4.30
2023-04-15T12:56:51.479Z,3.57
2023-04-15T12:59:19.010Z,5.20
2023-04-15T13:01:46.791Z,3.50
2023-04-15T13:04:13.982Z,3.10
2023-04-15T13:06:41.172Z,3.87
2023-04-15T13:09:07.796Z,3.90
2023-04-15T13:11:34.869Z,4.43
2023-04-15T13:14:04.043Z,4.90
2023-04-15T13:16:32.200Z,5.30
2023-04-15T13:19:03.601Z,4.13
2023-04-15T13:21:36.192Z,3.83
2023-04-15T13:24:05.261Z,4.03
2023-04-15T13:26:32.309Z,3.93
2023-04-15T13:29:00.533Z,5.53
2023-04-15T13:31:27.401Z,4.23
2023-04-15T13:33:54.104Z,5.57
2023-04-15T13:36:20.891Z,4.93
2023-04-15T13:38:50.423Z,3.90
2023-04-15T13:41:17.898Z,3.70
2023-04-15T13:43:44.521Z,2.80
2023-04-15T13:46:11.310Z,10.27
2023-04-15T13:48:37.990Z,3.37
2023-04-15T13:51:04.654Z,3.23
2023-04-15T13:53:38.150Z,4.33
2023-04-15T13:56:08.060Z,5.10
2023-04-15T13:58:34.781Z,4.87
2023-04-15T14:01:03.234Z,4.40
2023-04-15T14:03:31.565Z,6.50
2023-04-15T14:05:58.850Z,4.70
2023-04-15T14:08:25.988Z,5.33
2023-04-15T14:10:52.549Z,5.60
2023-04-15T14:13:19.872Z,4.40
2023-04-15T14:15:46.993Z,3.63
2023-04-15T14:18:13.574Z,2.70
2023-04-15T14:20:40.857Z,3.63
2023-04-15T14:23:07.734Z,4.67
2023-04-15T14:25:34.486Z,5.27
2023-04-15T14:28:02.966Z,5.97
2023-04-15T14:30:29.570Z,3.90
2023-04-15T14:32:56.989Z,3.03
2023-04-15T14:35:26.662Z,3.23
2023-04-15T14:37:54.045Z,4.73
2023-04-15T14:40:20.893Z,4.83
2023-04-15T14:42:47.740Z,6.70
2023-04-15T14:45:14.436Z,5.03
2023-04-15T14:47:41.370Z,7.67
2023-04-15T14:50:08.379Z,8.23
2023-04-15T14:52:38.963Z,14.57
2023-04-15T14:55:12.533Z,9.23
2023-04-15T14:57:41.028Z,7.80
2023-04-15T15:00:10.063Z,9.27
2023-04-15T15:02:39.603Z,6.50
2023-04-15T15:05:07.846Z,5.57
2023-04-15T15:07:36.200Z,3.73
2023-04-15T15:10:03.217Z,2.10
2023-04-15T15:12:29.852Z,2.73
2023-04-15T15:14:56.465Z,3.77
2023-04-15T15:17:23.131Z,3.20
2023-04-15T15:19:49.792Z,7.27
2023-04-15T15:22:16.495Z,2.23
2023-04-15T15:24:43.171Z,2.80
2023-04-15T15:27:10.033Z,3.70
2023-04-15T15:29:37.952Z,3.37
2023-04-15T15:32:04.725Z,3.30
2023-04-15T15:34:31.323Z,4.80
2023-04-15T15:36:58.049Z,4.27
2023-04-15T15:39:24.715Z,5.37
2023-04-15T15:41:51.308Z,5.13
2023-04-15T15:44:17.911Z,3.57
2023-04-15T15:46:44.765Z,3.23
2023-04-15T15:49:11.690Z,6.03
2023-04-15T15:51:38.360Z,3.93
2023-04-15T15:54:04.958Z,3.60
2023-04-15T15:56:31.664Z,5.47
2023-04-15T15:58:58.290Z,3.43
2023-04-15T16:01:25.021Z,3.87
2023-04-15T16:03:51.960Z,2.83
2023-04-15T16:06:18.713Z,4.97
2023-04-15T16:08:45.365Z,4.53
2023-04-15T16:11:11.981Z,4.30
2023-04-15T16:13:38.896Z,5.67
2023-04-15T16:16:05.879Z,3.17
2023-04-15T16:18:35.047Z,3.23
2023-04-15T16:21:01.867Z,5.53
2023-04-15T16:23:31.281Z,4.80
2023-04-15T16:26:02.626Z,3.20
2023-04-15T16:28:29.272Z,5.07
2023-04-15T16:30:57.256Z,5.90
2023-04-15T16:33:23.923Z,4.03
2023-04-15T16:35:51.183Z,3.87
2023-04-15T16:38:18.111Z,5.07
2023-04-15T16:40:44.718Z,2.93
2023-04-15T16:43:11.627Z,7.50
2023-04-15T16:45:38.573Z,6.70
2023-04-15T16:48:05.492Z,3.33
2023-04-15T16:50:32.180Z,5.73
2023-04-15T16:52:58.773Z,9.27
2023-04-15T16:55:26.104Z,6.77
2023-04-15T16:58:03.036Z,13.33
2023-04-15T17:00:32.212Z,6.60
2023-04-15T17:03:00.405Z,5.90
2023-04-15T17:05:31.233Z,7.73
2023-04-15T17:07:58.133Z,5.97
2023-04-15T17:10:24.980Z,7.50
2023-04-15T17:12:54.600Z,6.23
2023-04-15T17:15:21.235Z,6.33
2023-04-15T17:17:47.975Z,4.63
2023-04-15T17:20:14.731Z,5.43
2023-04-15T17:22:41.423Z,8.23
2023-04-15T17:25:08.488Z,7.60
2023-04-15T17:27:35.148Z,7.33
2023-04-15T17:30:02.215Z,6.70
2023-04-15T17:32:32.040Z,6.70
2023-04-15T17:34:58.813Z,8.60
2023-04-15T17:37:26.148Z,4.37
2023-04-15T17:39:53.115Z,5.60
2023-04-15T17:42:19.881Z,8.43
2023-04-15T17:44:46.517Z,7.20
2023-04-15T17:47:13.163Z,6.90
2023-04-15T17:49:39.881Z,8.10
2023-04-15T17:52:06.714Z,7.23
2023-04-15T17:54:33.325Z,3.90
2023-04-15T17:57:00.364Z,6.50
2023-04-15T17:59:28.234Z,7.43
2023-04-15T18:01:55.158Z,8.10
2023-04-15T18:04:24.870Z,6.27
2023-04-15T18:06:53.042Z,8.47
2023-04-15T18:09:19.707Z,7.67
2023-04-15T18:11:48.490Z,9.17
2023-04-15T18:14:23.560Z,7.20
2023-04-15T18:17:00.458Z,5.63
2023-04-15T18:19:27.167Z,14.13
2023-04-15T18:21:54.334Z,9.17
2023-04-15T18:24:21.069Z,7.80
2023-04-15T18:26:49.263Z,8.03
2023-04-15T18:29:16.219Z,7.77
2023-04-15T18:31:42.906Z,7.47
2023-04-15T18:34:09.577Z,7.93
2023-04-15T18:36:36.363Z,9.07
2023-04-15T18:39:03.384Z,8.53
2023-04-15T18:41:30.229Z,9.40
2023-04-15T18:43:56.903Z,7.23
2023-04-15T18:46:23.622Z,7.63
2023-04-15T18:48:50.313Z,14.47
2023-04-15T18:51:17.058Z,7.60
2023-04-15T18:53:43.639Z,8.03
2023-04-15T18:56:10.342Z,6.43
2023-04-15T18:59:08.821Z,10.33
2023-04-15T19:01:24.195Z,8.00
2023-04-15T19:03:51.129Z,9.47
2023-04-15T19:06:17.801Z,9.77
2023-04-15T19:08:44.429Z,8.47
2023-04-15T19:11:11.150Z,10.73
2023-04-15T19:13:38.300Z,8.40
2023-04-15T19:16:05.178Z,6.97
2023-04-15T19:18:31.806Z,8.73
2023-04-15T19:20:58.639Z,5.80
2023-04-15T19:23:25.306Z,7.67
2023-04-15T19:25:52.240Z,7.70
2023-04-15T19:28:18.841Z,8.83
2023-04-15T19:30:45.498Z,5.97
2023-04-15T19:33:12.310Z,7.27
2023-04-15T19:35:40.826Z,9.27
2023-04-15T19:38:07.472Z,6.47
2023-04-15T19:40:36.386Z,10.10
2023-04-15T19:43:03.009Z,9.00
2023-04-15T19:45:29.727Z,10.23
2023-04-15T19:47:57.426Z,10.93
2023-04-15T19:50:26.523Z,10.47
2023-04-15T19:52:53.908Z,12.00
2023-04-15T19:55:20.575Z,13.17
2023-04-15T19:57:47.260Z,6.00
2023-04-15T20:00:14.055Z,10.77
2023-04-15T20:02:41.082Z,9.73
2023-04-15T20:05:10.049Z,8.30
2023-04-15T20:07:37.020Z,11.47
2023-04-15T20:10:12.101Z,10.10
2023-04-15T20:12:49.414Z,8.57
2023-04-15T20:15:18.601Z,8.47
2023-04-15T20:17:45.257Z,7.60
2023-04-15T20:20:11.946Z,8.13
2023-04-15T20:22:38.552Z,7.70
2023-04-15T20:25:05.846Z,13.23
2023-04-15T20:27:32.465Z,12.87
2023-04-15T20:29:59.116Z,11.93
2023-04-15T20:32:27.029Z,12.60
2023-04-15T20:34:53.852Z,11.23
2023-04-15T20:37:20.624Z,12.80
2023-04-15T20:39:47.286Z,14.27
2023-04-15T20:42:14.039Z,18.73
2023-04-15T20:44:40.790Z,11.87
2023-04-15T20:47:07.936Z,13.07
2023-04-15T20:49:36.030Z,13.60
2023-04-15T20:52:03.949Z,19.17
2023-04-15T20:54:30.722Z,11.60
2023-04-15T20:56:58.157Z,12.13
2023-04-15T20:59:25.082Z,14.47
2023-04-15T21:01:51.898Z,14.30
2023-04-15T21:04:19.133Z,13.07
2023-04-15T21:06:45.787Z,9.30
2023-04-15T21:09:12.433Z,11.03
2023-04-15T21:11:57.380Z,11.47
2023-04-15T21:14:25.765Z,15.07
2023-04-15T21:16:52.338Z,10.77
2023-04-15T21:19:18.940Z,11.07
2023-04-15T21:21:45.699Z,12.63
2023-04-15T21:24:13.669Z,11.43
2023-04-15T21:26:40.824Z,12.90
2023-04-15T21:29:10.528Z,18.90
2023-04-15T21:31:38.273Z,16.30
2023-04-15T21:34:05.422Z,20.13
2023-04-15T21:36:32.358Z,14.60
2023-04-15T21:38:58.949Z,18.47
2023-04-15T21:41:26.152Z,14.57
2023-04-15T21:43:53.655Z,19.23
2023-04-15T21:46:25.278Z,20.60
2023-04-15T21:48:55.576Z,19.53
2023-04-15T21:51:22.672Z,20.23
2023-04-15T21:53:49.263Z,15.43
2023-04-15T21:56:16.000Z,19.83
2023-04-15T21:58:43.409Z,15.20
2023-04-15T22:01:10.111Z,16.07
2023-04-15T22:03:36.962Z,16.63
2023-04-15T22:06:04.155Z,18.33
2023-04-15T22:08:38.725Z,12.37
2023-04-15T22:11:21.382Z,15.87
2023-04-15T22:13:47.959Z,17.20
2023-04-15T22:16:14.593Z,16.00
2023-04-15T22:18:41.408Z,12.70
2023-04-15T22:21:08.108Z,16.07
2023-04-15T22:23:34.712Z,12.73
2023-04-15T22:26:01.467Z,16.50
2023-04-15T22:28:28.081Z,16.13
2023-04-15T22:30:54.803Z,14.43
2023-04-15T22:33:21.399Z,19.70
2023-04-15T22:35:48.026Z,18.70
2023-04-15T22:38:14.662Z,19.50
2023-04-15T22:40:41.678Z,15.03
2023-04-15T22:43:08.266Z,17.67
2023-04-15T22:45:34.881Z,17.10
2023-04-15T22:48:02.888Z,16.90
2023-04-15T22:50:29.469Z,16.37
2023-04-15T22:52:56.091Z,15.43
2023-04-15T22:55:23.136Z,21.77
2023-04-15T22:57:49.726Z,14.60
2023-04-15T23:00:16.378Z,15.77
2023-04-15T23:02:43.518Z,18.93
2023-04-15T23:05:12.871Z,16.00
2023-04-15T23:07:40.178Z,15.97
2023-04-15T23:10:08.153Z,18.90
2023-04-15T23:12:34.991Z,19.30
2023-04-15T23:15:01.677Z,17.33
2023-04-15T23:17:28.386Z,20.23
2023-04-15T23:19:55.441Z,18.37
2023-04-15T23:22:22.200Z,15.23
2023-04-15T23:24:48.791Z,17.80
2023-04-15T23:27:15.501Z,15.73
2023-04-15T23:29:42.244Z,19.67
2023-04-15T23:32:08.813Z,18.30
2023-04-15T23:34:35.491Z,18.90
2023-04-15T23:37:02.070Z,16.63
2023-04-15T23:39:30.920Z,21.77
2023-04-15T23:41:57.842Z,16.87
2023-04-15T23:44:24.520Z,17.97
2023-04-15T23:46:51.489Z,24.20
2023-04-15T23:49:20.251Z,21.20
2023-04-15T23:51:47.261Z,23.17
2023-04-15T23:54:13.896Z,21.47
2023-04-15T23:56:40.511Z,21.80
2023-04-15T23:59:07.211Z,21.80
